Terminal Aerodrome Forecast
Issued by NWS

Home | Current Version | Previous Version | Text Only | Print | Product List | Glossary On
Versions: 1 2 3 4 5 6 7 8 9 10 11 12 13 14 15 16 17 18
000
FTUS43 KFGF 300500
TAFTVF
TAF
KTVF 300520Z 3006/3106 35008KT P6SM BKN050
     FM300800 35007KT P6SM SCT050
     FM301900 12005KT P6SM SCT250
     FM302300 13008KT P6SM BKN250
      AMD LTD TO CLD VIS AND WIND=

USA.gov is the U.S. government's official web portal to all federal, state and local government web resources and services.